sensor_id;sensor_type;location;lat;lon;timestamp;P1;durP1;ratioP1;P2;durP2;ratioP2
24147;SDS011;12309;51.450;-2.624;2023-05-07T00:01:49;26.60;;;11.47;;
24147;SDS011;12309;51.450;-2.624;2023-05-07T00:04:15;24.53;;;10.50;;
24147;SDS011;12309;51.450;-2.624;2023-05-07T00:06:40;23.27;;;11.13;;
24147;SDS011;12309;51.450;-2.624;2023-05-07T00:09:06;28.63;;;11.70;;
24147;SDS011;12309;51.450;-2.624;2023-05-07T00:11:32;31.60;;;11.20;;
24147;SDS011;12309;51.450;-2.624;2023-05-07T00:13:58;25.90;;;11.63;;
24147;SDS011;12309;51.450;-2.624;2023-05-07T00:16:24;33.77;;;11.47;;
24147;SDS011;12309;51.450;-2.624;2023-05-07T00:18:50;29.37;;;11.73;;
24147;SDS011;12309;51.450;-2.624;2023-05-07T00:21:15;23.53;;;11.40;;
24147;SDS011;12309;51.450;-2.624;2023-05-07T00:23:41;30.07;;;13.03;;
24147;SDS011;12309;51.450;-2.624;2023-05-07T00:26:07;30.53;;;12.50;;
24147;SDS011;12309;51.450;-2.624;2023-05-07T00:28:32;30.13;;;13.47;;
24147;SDS011;12309;51.450;-2.624;2023-05-07T00:30:58;27.27;;;12.40;;
24147;SDS011;12309;51.450;-2.624;2023-05-07T00:33:23;27.07;;;12.90;;
24147;SDS011;12309;51.450;-2.624;2023-05-07T00:35:51;26.30;;;12.07;;
24147;SDS011;12309;51.450;-2.624;2023-05-07T00:38:17;26.60;;;12.80;;
24147;SDS011;12309;51.450;-2.624;2023-05-07T00:40:42;31.20;;;13.73;;
24147;SDS011;12309;51.450;-2.624;2023-05-07T00:43:08;31.10;;;13.33;;
24147;SDS011;12309;51.450;-2.624;2023-05-07T00:45:33;29.97;;;13.43;;
24147;SDS011;12309;51.450;-2.624;2023-05-07T00:48:00;24.67;;;12.57;;
24147;SDS011;12309;51.450;-2.624;2023-05-07T00:50:27;28.27;;;13.13;;
24147;SDS011;12309;51.450;-2.624;2023-05-07T00:52:53;27.13;;;13.33;;
24147;SDS011;12309;51.450;-2.624;2023-05-07T00:55:19;28.53;;;13.77;;
24147;SDS011;12309;51.450;-2.624;2023-05-07T00:57:46;24.40;;;11.83;;
24147;SDS011;12309;51.450;-2.624;2023-05-07T01:00:12;26.57;;;12.53;;
24147;SDS011;12309;51.450;-2.624;2023-05-07T01:02:41;26.80;;;11.60;;
24147;SDS011;12309;51.450;-2.624;2023-05-07T01:05:12;29.00;;;12.17;;
24147;SDS011;12309;51.450;-2.624;2023-05-07T01:07:40;21.10;;;10.73;;
24147;SDS011;12309;51.450;-2.624;2023-05-07T01:10:07;30.40;;;12.37;;
24147;SDS011;12309;51.450;-2.624;2023-05-07T01:12:34;26.10;;;12.77;;
24147;SDS011;12309;51.450;-2.624;2023-05-07T01:15:01;34.30;;;13.03;;
24147;SDS011;12309;51.450;-2.624;2023-05-07T01:17:28;29.33;;;12.43;;
24147;SDS011;12309;51.450;-2.624;2023-05-07T01:19:54;26.80;;;12.70;;
24147;SDS011;12309;51.450;-2.624;2023-05-07T01:22:32;21.90;;;12.03;;
24147;SDS011;12309;51.450;-2.624;2023-05-07T01:24:59;26.50;;;11.90;;
24147;SDS011;12309;51.450;-2.624;2023-05-07T01:27:26;27.63;;;11.93;;
24147;SDS011;12309;51.450;-2.624;2023-05-07T01:29:52;26.90;;;12.17;;
24147;SDS011;12309;51.450;-2.624;2023-05-07T01:32:28;27.13;;;13.07;;
24147;SDS011;12309;51.450;-2.624;2023-05-07T01:34:58;29.37;;;14.57;;
24147;SDS011;12309;51.450;-2.624;2023-05-07T01:37:26;33.73;;;14.40;;
24147;SDS011;12309;51.450;-2.624;2023-05-07T01:39:52;31.27;;;15.00;;
24147;SDS011;12309;51.450;-2.624;2023-05-07T01:42:19;30.40;;;14.03;;
24147;SDS011;12309;51.450;-2.624;2023-05-07T01:44:44;26.70;;;14.47;;
24147;SDS011;12309;51.450;-2.624;2023-05-07T01:47:11;34.23;;;14.93;;
24147;SDS011;12309;51.450;-2.624;2023-05-07T01:49:38;24.67;;;13.67;;
24147;SDS011;12309;51.450;-2.624;2023-05-07T01:52:04;29.77;;;14.13;;
24147;SDS011;12309;51.450;-2.624;2023-05-07T01:54:30;21.90;;;12.80;;
24147;SDS011;12309;51.450;-2.624;2023-05-07T01:56:56;28.47;;;14.00;;
24147;SDS011;12309;51.450;-2.624;2023-05-07T01:59:22;28.93;;;13.20;;
24147;SDS011;12309;51.450;-2.624;2023-05-07T02:01:48;28.47;;;13.60;;
24147;SDS011;12309;51.450;-2.624;2023-05-07T02:04:13;28.47;;;13.23;;
24147;SDS011;12309;51.450;-2.624;2023-05-07T02:06:39;27.10;;;13.40;;
24147;SDS011;12309;51.450;-2.624;2023-05-07T02:09:05;27.97;;;13.40;;
24147;SDS011;12309;51.450;-2.624;2023-05-07T02:11:30;28.17;;;13.27;;
24147;SDS011;12309;51.450;-2.624;2023-05-07T02:13:56;26.90;;;12.97;;
24147;SDS011;12309;51.450;-2.624;2023-05-07T02:16:22;25.02;;;12.95;;
24147;SDS011;12309;51.450;-2.624;2023-05-07T02:18:48;30.83;;;13.83;;
24147;SDS011;12309;51.450;-2.624;2023-05-07T02:21:14;29.47;;;13.13;;
24147;SDS011;12309;51.450;-2.624;2023-05-07T02:23:40;21.43;;;12.63;;
24147;SDS011;12309;51.450;-2.624;2023-05-07T02:26:05;20.90;;;10.20;;
24147;SDS011;12309;51.450;-2.624;2023-05-07T02:28:31;22.33;;;10.40;;
24147;SDS011;12309;51.450;-2.624;2023-05-07T02:30:56;20.30;;;10.83;;
24147;SDS011;12309;51.450;-2.624;2023-05-07T02:33:23;17.00;;;10.50;;
24147;SDS011;12309;51.450;-2.624;2023-05-07T02:35:49;20.87;;;11.03;;
24147;SDS011;12309;51.450;-2.624;2023-05-07T02:38:16;18.80;;;10.17;;
24147;SDS011;12309;51.450;-2.624;2023-05-07T02:40:42;21.90;;;10.47;;
24147;SDS011;12309;51.450;-2.624;2023-05-07T02:43:08;18.53;;;10.40;;
24147;SDS011;12309;51.450;-2.624;2023-05-07T02:45:34;23.50;;;10.40;;
24147;SDS011;12309;51.450;-2.624;2023-05-07T02:47:59;19.10;;;10.47;;
24147;SDS011;12309;51.450;-2.624;2023-05-07T02:50:25;21.13;;;10.27;;
24147;SDS011;12309;51.450;-2.624;2023-05-07T02:52:52;16.93;;;10.37;;
24147;SDS011;12309;51.450;-2.624;2023-05-07T02:55:17;20.33;;;10.60;;
24147;SDS011;12309;51.450;-2.624;2023-05-07T02:57:43;24.13;;;11.27;;
24147;SDS011;12309;51.450;-2.624;2023-05-07T03:00:13;23.37;;;11.73;;
24147;SDS011;12309;51.450;-2.624;2023-05-07T03:02:40;19.27;;;11.10;;
24147;SDS011;12309;51.450;-2.624;2023-05-07T03:05:05;23.90;;;12.77;;
24147;SDS011;12309;51.450;-2.624;2023-05-07T03:07:31;25.63;;;12.47;;
24147;SDS011;12309;51.450;-2.624;2023-05-07T03:09:57;25.50;;;11.93;;
24147;SDS011;12309;51.450;-2.624;2023-05-07T03:12:22;21.83;;;12.97;;
24147;SDS011;12309;51.450;-2.624;2023-05-07T03:14:48;26.60;;;12.50;;
24147;SDS011;12309;51.450;-2.624;2023-05-07T03:17:14;25.23;;;13.30;;
24147;SDS011;12309;51.450;-2.624;2023-05-07T03:19:41;25.07;;;13.30;;
24147;SDS011;12309;51.450;-2.624;2023-05-07T03:22:06;28.57;;;13.60;;
24147;SDS011;12309;51.450;-2.624;2023-05-07T03:24:32;29.47;;;15.67;;
24147;SDS011;12309;51.450;-2.624;2023-05-07T03:26:57;30.67;;;15.77;;
24147;SDS011;12309;51.450;-2.624;2023-05-07T03:29:23;31.77;;;17.40;;
24147;SDS011;12309;51.450;-2.624;2023-05-07T03:31:49;41.23;;;18.80;;
24147;SDS011;12309;51.450;-2.624;2023-05-07T03:34:15;37.83;;;20.20;;
24147;SDS011;12309;51.450;-2.624;2023-05-07T03:36:42;40.67;;;20.43;;
24147;SDS011;12309;51.450;-2.624;2023-05-07T03:39:07;42.03;;;21.40;;
24147;SDS011;12309;51.450;-2.624;2023-05-07T03:41:33;39.57;;;19.23;;
24147;SDS011;12309;51.450;-2.624;2023-05-07T03:43:59;44.17;;;20.73;;
24147;SDS011;12309;51.450;-2.624;2023-05-07T03:46:24;46.07;;;22.83;;
24147;SDS011;12309;51.450;-2.624;2023-05-07T03:48:51;49.80;;;23.93;;
24147;SDS011;12309;51.450;-2.624;2023-05-07T03:51:17;50.80;;;24.33;;
24147;SDS011;12309;51.450;-2.624;2023-05-07T03:53:42;51.13;;;24.53;;
24147;SDS011;12309;51.450;-2.624;2023-05-07T03:56:08;47.80;;;25.37;;
24147;SDS011;12309;51.450;-2.624;2023-05-07T03:58:34;49.87;;;25.60;;
24147;SDS011;12309;51.450;-2.624;2023-05-07T04:01:00;52.47;;;24.80;;
24147;SDS011;12309;51.450;-2.624;2023-05-07T04:03:26;50.83;;;25.20;;
24147;SDS011;12309;51.450;-2.624;2023-05-07T04:05:51;46.37;;;25.10;;
24147;SDS011;12309;51.450;-2.624;2023-05-07T04:08:17;43.57;;;24.50;;
24147;SDS011;12309;51.450;-2.624;2023-05-07T04:10:42;47.40;;;24.37;;
24147;SDS011;12309;51.450;-2.624;2023-05-07T04:13:08;38.30;;;22.30;;
24147;SDS011;12309;51.450;-2.624;2023-05-07T04:15:34;45.73;;;22.13;;
24147;SDS011;12309;51.450;-2.624;2023-05-07T04:18:00;41.47;;;23.17;;
24147;SDS011;12309;51.450;-2.624;2023-05-07T04:20:26;42.33;;;21.93;;
24147;SDS011;12309;51.450;-2.624;2023-05-07T04:22:52;43.30;;;22.60;;
24147;SDS011;12309;51.450;-2.624;2023-05-07T04:25:18;37.53;;;21.77;;
24147;SDS011;12309;51.450;-2.624;2023-05-07T04:27:43;38.60;;;20.43;;
24147;SDS011;12309;51.450;-2.624;2023-05-07T04:30:09;38.57;;;18.77;;
24147;SDS011;12309;51.450;-2.624;2023-05-07T04:32:35;34.37;;;17.73;;
24147;SDS011;12309;51.450;-2.624;2023-05-07T04:35:02;36.47;;;17.20;;
24147;SDS011;12309;51.450;-2.624;2023-05-07T04:37:28;33.73;;;18.07;;
24147;SDS011;12309;51.450;-2.624;2023-05-07T04:39:53;31.17;;;17.60;;
24147;SDS011;12309;51.450;-2.624;2023-05-07T04:42:19;37.73;;;18.13;;
24147;SDS011;12309;51.450;-2.624;2023-05-07T04:44:45;35.50;;;18.80;;
24147;SDS011;12309;51.450;-2.624;2023-05-07T04:47:11;35.63;;;18.30;;
24147;SDS011;12309;51.450;-2.624;2023-05-07T04:49:37;36.70;;;18.83;;
24147;SDS011;12309;51.450;-2.624;2023-05-07T04:52:03;33.93;;;18.17;;
24147;SDS011;12309;51.450;-2.624;2023-05-07T04:54:29;32.43;;;18.20;;
24147;SDS011;12309;51.450;-2.624;2023-05-07T04:56:55;33.93;;;18.17;;
24147;SDS011;12309;51.450;-2.624;2023-05-07T04:59:21;32.17;;;17.47;;
24147;SDS011;12309;51.450;-2.624;2023-05-07T05:01:46;29.47;;;16.67;;
24147;SDS011;12309;51.450;-2.624;2023-05-07T05:04:12;32.23;;;16.47;;
24147;SDS011;12309;51.450;-2.624;2023-05-07T05:06:38;31.77;;;16.67;;
24147;SDS011;12309;51.450;-2.624;2023-05-07T05:09:04;31.70;;;15.70;;
24147;SDS011;12309;51.450;-2.624;2023-05-07T05:11:30;29.50;;;16.07;;
24147;SDS011;12309;51.450;-2.624;2023-05-07T05:13:56;28.67;;;16.40;;
24147;SDS011;12309;51.450;-2.624;2023-05-07T05:16:22;28.30;;;16.00;;
24147;SDS011;12309;51.450;-2.624;2023-05-07T05:18:47;29.33;;;16.03;;
24147;SDS011;12309;51.450;-2.624;2023-05-07T05:21:13;30.37;;;16.17;;
24147;SDS011;12309;51.450;-2.624;2023-05-07T05:23:39;31.20;;;15.93;;
24147;SDS011;12309;51.450;-2.624;2023-05-07T05:26:04;30.73;;;16.10;;
24147;SDS011;12309;51.450;-2.624;2023-05-07T05:28:30;32.90;;;16.33;;
24147;SDS011;12309;51.450;-2.624;2023-05-07T05:30:56;32.80;;;17.07;;
24147;SDS011;12309;51.450;-2.624;2023-05-07T05:33:21;29.30;;;16.33;;
24147;SDS011;12309;51.450;-2.624;2023-05-07T05:35:47;36.93;;;17.83;;
24147;SDS011;12309;51.450;-2.624;2023-05-07T05:38:13;34.57;;;16.80;;
24147;SDS011;12309;51.450;-2.624;2023-05-07T05:40:38;38.77;;;18.07;;
24147;SDS011;12309;51.450;-2.624;2023-05-07T05:43:05;33.63;;;17.50;;
24147;SDS011;12309;51.450;-2.624;2023-05-07T05:45:31;35.17;;;18.47;;
24147;SDS011;12309;51.450;-2.624;2023-05-07T05:47:56;34.17;;;17.33;;
24147;SDS011;12309;51.450;-2.624;2023-05-07T05:50:22;30.07;;;16.10;;
24147;SDS011;12309;51.450;-2.624;2023-05-07T05:52:48;34.53;;;16.10;;
24147;SDS011;12309;51.450;-2.624;2023-05-07T05:55:13;34.60;;;15.80;;
24147;SDS011;12309;51.450;-2.624;2023-05-07T05:57:39;31.83;;;16.47;;
24147;SDS011;12309;51.450;-2.624;2023-05-07T06:00:05;29.50;;;15.40;;
24147;SDS011;12309;51.450;-2.624;2023-05-07T06:02:32;29.10;;;15.40;;
24147;SDS011;12309;51.450;-2.624;2023-05-07T06:04:58;31.07;;;14.47;;
24147;SDS011;12309;51.450;-2.624;2023-05-07T06:07:24;33.50;;;15.40;;
24147;SDS011;12309;51.450;-2.624;2023-05-07T06:09:49;29.27;;;14.83;;
24147;SDS011;12309;51.450;-2.624;2023-05-07T06:12:15;32.30;;;15.23;;
24147;SDS011;12309;51.450;-2.624;2023-05-07T06:14:44;27.93;;;14.07;;
24147;SDS011;12309;51.450;-2.624;2023-05-07T06:17:10;28.37;;;14.70;;
24147;SDS011;12309;51.450;-2.624;2023-05-07T06:19:35;29.90;;;14.40;;
24147;SDS011;12309;51.450;-2.624;2023-05-07T06:22:01;31.13;;;14.70;;
24147;SDS011;12309;51.450;-2.624;2023-05-07T06:24:27;29.73;;;14.47;;
24147;SDS011;12309;51.450;-2.624;2023-05-07T06:26:53;28.97;;;14.37;;
24147;SDS011;12309;51.450;-2.624;2023-05-07T06:29:19;28.67;;;14.37;;
24147;SDS011;12309;51.450;-2.624;2023-05-07T06:31:44;27.83;;;14.10;;
24147;SDS011;12309;51.450;-2.624;2023-05-07T06:34:10;29.47;;;14.57;;
24147;SDS011;12309;51.450;-2.624;2023-05-07T06:36:39;29.00;;;15.23;;
24147;SDS011;12309;51.450;-2.624;2023-05-07T06:39:05;27.30;;;13.80;;
24147;SDS011;12309;51.450;-2.624;2023-05-07T06:41:31;29.97;;;15.93;;
24147;SDS011;12309;51.450;-2.624;2023-05-07T06:43:56;28.60;;;14.73;;
24147;SDS011;12309;51.450;-2.624;2023-05-07T06:46:22;30.40;;;14.37;;
24147;SDS011;12309;51.450;-2.624;2023-05-07T06:48:47;27.33;;;14.17;;
24147;SDS011;12309;51.450;-2.624;2023-05-07T06:51:13;29.83;;;14.80;;
24147;SDS011;12309;51.450;-2.624;2023-05-07T06:53:38;26.67;;;14.23;;
24147;SDS011;12309;51.450;-2.624;2023-05-07T06:56:05;33.97;;;14.80;;
24147;SDS011;12309;51.450;-2.624;2023-05-07T06:58:31;30.37;;;15.53;;
24147;SDS011;12309;51.450;-2.624;2023-05-07T07:00:56;27.63;;;13.27;;
24147;SDS011;12309;51.450;-2.624;2023-05-07T07:03:22;24.37;;;12.53;;
24147;SDS011;12309;51.450;-2.624;2023-05-07T07:05:50;26.63;;;11.67;;
24147;SDS011;12309;51.450;-2.624;2023-05-07T07:08:17;25.20;;;11.53;;
24147;SDS011;12309;51.450;-2.624;2023-05-07T07:10:42;25.80;;;11.43;;
24147;SDS011;12309;51.450;-2.624;2023-05-07T07:13:08;27.30;;;10.53;;
24147;SDS011;12309;51.450;-2.624;2023-05-07T07:15:34;19.43;;;10.27;;
24147;SDS011;12309;51.450;-2.624;2023-05-07T07:17:59;22.60;;;9.80;;
24147;SDS011;12309;51.450;-2.624;2023-05-07T07:20:25;22.50;;;10.13;;
24147;SDS011;12309;51.450;-2.624;2023-05-07T07:22:51;22.57;;;9.87;;
24147;SDS011;12309;51.450;-2.624;2023-05-07T07:25:16;20.03;;;10.23;;
24147;SDS011;12309;51.450;-2.624;2023-05-07T07:27:42;17.25;;;9.38;;
24147;SDS011;12309;51.450;-2.624;2023-05-07T07:30:08;17.33;;;8.55;;
24147;SDS011;12309;51.450;-2.624;2023-05-07T07:32:34;17.70;;;8.30;;
24147;SDS011;12309;51.450;-2.624;2023-05-07T07:35:00;20.90;;;7.93;;
24147;SDS011;12309;51.450;-2.624;2023-05-07T07:37:26;15.85;;;7.47;;
24147;SDS011;12309;51.450;-2.624;2023-05-07T07:39:52;20.73;;;7.35;;
24147;SDS011;12309;51.450;-2.624;2023-05-07T07:42:17;18.33;;;6.78;;
24147;SDS011;12309;51.450;-2.624;2023-05-07T07:44:43;17.83;;;6.50;;
24147;SDS011;12309;51.450;-2.624;2023-05-07T07:47:09;13.20;;;4.93;;
24147;SDS011;12309;51.450;-2.624;2023-05-07T07:49:35;10.45;;;5.05;;
24147;SDS011;12309;51.450;-2.624;2023-05-07T07:52:01;13.05;;;4.90;;
24147;SDS011;12309;51.450;-2.624;2023-05-07T07:54:26;15.05;;;5.32;;
24147;SDS011;12309;51.450;-2.624;2023-05-07T07:56:52;11.48;;;4.30;;
24147;SDS011;12309;51.450;-2.624;2023-05-07T07:59:17;11.35;;;4.22;;
24147;SDS011;12309;51.450;-2.624;2023-05-07T08:01:44;14.52;;;4.60;;
24147;SDS011;12309;51.450;-2.624;2023-05-07T08:04:10;11.48;;;4.15;;
24147;SDS011;12309;51.450;-2.624;2023-05-07T08:06:35;10.45;;;3.17;;
24147;SDS011;12309;51.450;-2.624;2023-05-07T08:09:01;10.73;;;3.10;;
24147;SDS011;12309;51.450;-2.624;2023-05-07T08:11:27;14.32;;;3.65;;
24147;SDS011;12309;51.450;-2.624;2023-05-07T08:13:53;14.55;;;3.88;;
24147;SDS011;12309;51.450;-2.624;2023-05-07T08:16:19;14.07;;;3.88;;
24147;SDS011;12309;51.450;-2.624;2023-05-07T08:18:45;9.27;;;3.13;;
24147;SDS011;12309;51.450;-2.624;2023-05-07T08:21:11;8.70;;;2.88;;
24147;SDS011;12309;51.450;-2.624;2023-05-07T08:23:36;7.50;;;2.88;;
24147;SDS011;12309;51.450;-2.624;2023-05-07T08:26:02;12.32;;;2.90;;
24147;SDS011;12309;51.450;-2.624;2023-05-07T08:28:28;9.43;;;2.67;;
24147;SDS011;12309;51.450;-2.624;2023-05-07T08:30:53;14.38;;;2.88;;
24147;SDS011;12309;51.450;-2.624;2023-05-07T08:33:19;12.77;;;2.90;;
24147;SDS011;12309;51.450;-2.624;2023-05-07T08:35:45;6.57;;;2.10;;
24147;SDS011;12309;51.450;-2.624;2023-05-07T08:38:11;10.18;;;2.47;;
24147;SDS011;12309;51.450;-2.624;2023-05-07T08:40:37;9.43;;;2.85;;
24147;SDS011;12309;51.450;-2.624;2023-05-07T08:43:07;11.07;;;2.20;;
24147;SDS011;12309;51.450;-2.624;2023-05-07T08:45:33;9.05;;;2.17;;
24147;SDS011;12309;51.450;-2.624;2023-05-07T08:48:01;10.95;;;2.58;;
24147;SDS011;12309;51.450;-2.624;2023-05-07T08:50:30;10.55;;;2.72;;
24147;SDS011;12309;51.450;-2.624;2023-05-07T08:52:56;8.73;;;2.50;;
24147;SDS011;12309;51.450;-2.624;2023-05-07T08:55:22;6.70;;;2.47;;
24147;SDS011;12309;51.450;-2.624;2023-05-07T08:57:49;8.05;;;2.70;;
24147;SDS011;12309;51.450;-2.624;2023-05-07T09:00:15;6.25;;;2.03;;
24147;SDS011;12309;51.450;-2.624;2023-05-07T09:02:41;8.45;;;2.88;;
24147;SDS011;12309;51.450;-2.624;2023-05-07T09:05:07;7.13;;;2.33;;
24147;SDS011;12309;51.450;-2.624;2023-05-07T09:07:33;12.50;;;2.90;;
24147;SDS011;12309;51.450;-2.624;2023-05-07T09:10:01;6.00;;;2.40;;
24147;SDS011;12309;51.450;-2.624;2023-05-07T09:12:30;10.88;;;2.83;;
24147;SDS011;12309;51.450;-2.624;2023-05-07T09:14:56;7.80;;;2.53;;
24147;SDS011;12309;51.450;-2.624;2023-05-07T09:17:21;11.57;;;2.97;;
24147;SDS011;12309;51.450;-2.624;2023-05-07T09:19:47;9.55;;;3.03;;
24147;SDS011;12309;51.450;-2.624;2023-05-07T09:22:13;9.73;;;2.92;;
24147;SDS011;12309;51.450;-2.624;2023-05-07T09:24:39;7.95;;;3.50;;
24147;SDS011;12309;51.450;-2.624;2023-05-07T09:27:05;13.23;;;4.75;;
24147;SDS011;12309;51.450;-2.624;2023-05-07T09:29:31;14.15;;;3.78;;
24147;SDS011;12309;51.450;-2.624;2023-05-07T09:32:03;10.75;;;5.28;;
24147;SDS011;12309;51.450;-2.624;2023-05-07T09:34:33;15.98;;;6.00;;
24147;SDS011;12309;51.450;-2.624;2023-05-07T09:37:02;12.13;;;6.10;;
24147;SDS011;12309;51.450;-2.624;2023-05-07T09:39:39;16.13;;;6.80;;
24147;SDS011;12309;51.450;-2.624;2023-05-07T09:42:05;15.30;;;6.00;;
24147;SDS011;12309;51.450;-2.624;2023-05-07T09:44:31;14.02;;;6.95;;
24147;SDS011;12309;51.450;-2.624;2023-05-07T09:46:58;11.20;;;5.65;;
24147;SDS011;12309;51.450;-2.624;2023-05-07T09:49:27;14.57;;;6.10;;
24147;SDS011;12309;51.450;-2.624;2023-05-07T09:51:55;12.63;;;5.38;;
24147;SDS011;12309;51.450;-2.624;2023-05-07T09:54:24;11.02;;;5.32;;
24147;SDS011;12309;51.450;-2.624;2023-05-07T09:56:51;13.77;;;6.05;;
24147;SDS011;12309;51.450;-2.624;2023-05-07T09:59:17;15.10;;;5.80;;
24147;SDS011;12309;51.450;-2.624;2023-05-07T10:01:45;11.70;;;5.28;;
24147;SDS011;12309;51.450;-2.624;2023-05-07T10:04:11;15.98;;;5.68;;
24147;SDS011;12309;51.450;-2.624;2023-05-07T10:06:37;12.27;;;4.35;;
24147;SDS011;12309;51.450;-2.624;2023-05-07T10:09:03;14.23;;;4.88;;
24147;SDS011;12309;51.450;-2.624;2023-05-07T10:11:36;10.10;;;4.30;;
24147;SDS011;12309;51.450;-2.624;2023-05-07T10:14:03;10.25;;;3.15;;
24147;SDS011;12309;51.450;-2.624;2023-05-07T10:16:31;11.30;;;3.35;;
24147;SDS011;12309;51.450;-2.624;2023-05-07T10:19:02;7.97;;;3.50;;
24147;SDS011;12309;51.450;-2.624;2023-05-07T10:21:31;8.07;;;2.92;;
24147;SDS011;12309;51.450;-2.624;2023-05-07T10:24:20;9.40;;;3.42;;
24147;SDS011;12309;51.450;-2.624;2023-05-07T10:26:51;8.05;;;3.40;;
24147;SDS011;12309;51.450;-2.624;2023-05-07T10:29:21;11.25;;;3.33;;
24147;SDS011;12309;51.450;-2.624;2023-05-07T10:34:45;7.50;;;3.40;;
24147;SDS011;12309;51.450;-2.624;2023-05-07T10:37:15;12.43;;;4.25;;
24147;SDS011;12309;51.450;-2.624;2023-05-07T10:39:42;8.50;;;3.55;;
24147;SDS011;12309;51.450;-2.624;2023-05-07T10:42:11;9.13;;;3.97;;
24147;SDS011;12309;51.450;-2.624;2023-05-07T10:44:39;10.23;;;5.03;;
24147;SDS011;12309;51.450;-2.624;2023-05-07T10:47:13;14.15;;;5.70;;
24147;SDS011;12309;51.450;-2.624;2023-05-07T10:52:15;11.45;;;4.63;;
24147;SDS011;12309;51.450;-2.624;2023-05-07T10:57:44;10.60;;;4.57;;
24147;SDS011;12309;51.450;-2.624;2023-05-07T11:05:25;9.95;;;4.60;;
24147;SDS011;12309;51.450;-2.624;2023-05-07T11:07:56;8.52;;;4.03;;
24147;SDS011;12309;51.450;-2.624;2023-05-07T11:13:14;9.60;;;4.25;;
24147;SDS011;12309;51.450;-2.624;2023-05-07T11:15:42;6.95;;;3.60;;
24147;SDS011;12309;51.450;-2.624;2023-05-07T11:18:15;7.60;;;3.60;;
24147;SDS011;12309;51.450;-2.624;2023-05-07T11:20:45;11.20;;;4.05;;
24147;SDS011;12309;51.450;-2.624;2023-05-07T11:26:04;8.00;;;4.20;;
24147;SDS011;12309;51.450;-2.624;2023-05-07T11:28:31;6.80;;;3.72;;
24147;SDS011;12309;51.450;-2.624;2023-05-07T11:31:05;10.15;;;3.88;;
24147;SDS011;12309;51.450;-2.624;2023-05-07T11:33:32;6.80;;;3.83;;
24147;SDS011;12309;51.450;-2.624;2023-05-07T11:36:00;8.20;;;4.35;;
24147;SDS011;12309;51.450;-2.624;2023-05-07T11:38:28;8.30;;;3.97;;
24147;SDS011;12309;51.450;-2.624;2023-05-07T11:40:56;10.30;;;3.80;;
24147;SDS011;12309;51.450;-2.624;2023-05-07T11:43:27;7.32;;;4.70;;
24147;SDS011;12309;51.450;-2.624;2023-05-07T11:45:53;8.60;;;4.70;;
24147;SDS011;12309;51.450;-2.624;2023-05-07T11:48:19;8.73;;;5.82;;
24147;SDS011;12309;51.450;-2.624;2023-05-07T11:50:53;9.63;;;5.75;;
24147;SDS011;12309;51.450;-2.624;2023-05-07T11:53:27;8.95;;;5.60;;
24147;SDS011;12309;51.450;-2.624;2023-05-07T11:56:00;10.15;;;5.75;;
24147;SDS011;12309;51.450;-2.624;2023-05-07T11:58:25;10.02;;;6.30;;
24147;SDS011;12309;51.450;-2.624;2023-05-07T12:00:52;13.07;;;7.03;;
24147;SDS011;12309;51.450;-2.624;2023-05-07T12:03:18;11.13;;;6.15;;
24147;SDS011;12309;51.450;-2.624;2023-05-07T12:05:45;12.10;;;6.82;;
24147;SDS011;12309;51.450;-2.624;2023-05-07T12:08:14;9.48;;;6.65;;
24147;SDS011;12309;51.450;-2.624;2023-05-07T12:10:41;11.05;;;6.47;;
24147;SDS011;12309;51.450;-2.624;2023-05-07T12:13:20;11.15;;;6.10;;
24147;SDS011;12309;51.450;-2.624;2023-05-07T12:15:49;8.25;;;5.60;;
24147;SDS011;12309;51.450;-2.624;2023-05-07T12:18:16;10.52;;;5.20;;
24147;SDS011;12309;51.450;-2.624;2023-05-07T12:20:42;10.40;;;5.53;;
24147;SDS011;12309;51.450;-2.624;2023-05-07T12:23:08;10.90;;;5.00;;
24147;SDS011;12309;51.450;-2.624;2023-05-07T12:25:34;9.77;;;5.15;;
24147;SDS011;12309;51.450;-2.624;2023-05-07T12:28:04;9.95;;;5.85;;
24147;SDS011;12309;51.450;-2.624;2023-05-07T12:30:39;9.02;;;5.53;;
24147;SDS011;12309;51.450;-2.624;2023-05-07T12:33:05;10.85;;;6.35;;
24147;SDS011;12309;51.450;-2.624;2023-05-07T12:35:31;11.95;;;6.70;;
24147;SDS011;12309;51.450;-2.624;2023-05-07T12:38:00;9.90;;;5.88;;
24147;SDS011;12309;51.450;-2.624;2023-05-07T12:40:36;13.07;;;5.30;;
24147;SDS011;12309;51.450;-2.624;2023-05-07T12:43:02;11.23;;;5.10;;
24147;SDS011;12309;51.450;-2.624;2023-05-07T12:45:28;12.80;;;4.68;;
24147;SDS011;12309;51.450;-2.624;2023-05-07T12:47:54;11.38;;;3.88;;
24147;SDS011;12309;51.450;-2.624;2023-05-07T12:50:19;7.47;;;3.40;;
24147;SDS011;12309;51.450;-2.624;2023-05-07T12:52:48;7.68;;;2.63;;
24147;SDS011;12309;51.450;-2.624;2023-05-07T12:55:14;6.45;;;2.15;;
24147;SDS011;12309;51.450;-2.624;2023-05-07T12:57:41;6.22;;;2.30;;
24147;SDS011;12309;51.450;-2.624;2023-05-07T13:00:10;7.43;;;2.55;;
24147;SDS011;12309;51.450;-2.624;2023-05-07T13:02:41;14.40;;;3.50;;
24147;SDS011;12309;51.450;-2.624;2023-05-07T13:05:09;9.73;;;2.80;;
24147;SDS011;12309;51.450;-2.624;2023-05-07T13:07:35;8.45;;;2.38;;
24147;SDS011;12309;51.450;-2.624;2023-05-07T13:10:01;9.32;;;3.00;;
24147;SDS011;12309;51.450;-2.624;2023-05-07T13:12:27;13.57;;;2.60;;
24147;SDS011;12309;51.450;-2.624;2023-05-07T13:14:53;10.57;;;2.42;;
24147;SDS011;12309;51.450;-2.624;2023-05-07T13:17:19;6.63;;;2.30;;
24147;SDS011;12309;51.450;-2.624;2023-05-07T13:19:44;5.88;;;2.30;;
24147;SDS011;12309;51.450;-2.624;2023-05-07T13:22:10;6.32;;;1.98;;
24147;SDS011;12309;51.450;-2.624;2023-05-07T13:24:35;6.78;;;1.77;;
24147;SDS011;12309;51.450;-2.624;2023-05-07T13:27:01;8.13;;;2.05;;
24147;SDS011;12309;51.450;-2.624;2023-05-07T13:29:28;4.60;;;1.58;;
24147;SDS011;12309;51.450;-2.624;2023-05-07T13:31:56;6.35;;;1.80;;
24147;SDS011;12309;51.450;-2.624;2023-05-07T13:34:21;6.90;;;2.20;;
24147;SDS011;12309;51.450;-2.624;2023-05-07T13:36:47;6.57;;;2.00;;
24147;SDS011;12309;51.450;-2.624;2023-05-07T13:39:13;8.38;;;1.70;;
24147;SDS011;12309;51.450;-2.624;2023-05-07T13:41:39;6.90;;;2.08;;
24147;SDS011;12309;51.450;-2.624;2023-05-07T13:44:04;8.52;;;2.20;;
24147;SDS011;12309;51.450;-2.624;2023-05-07T13:46:30;6.32;;;1.90;;
24147;SDS011;12309;51.450;-2.624;2023-05-07T13:48:56;14.48;;;2.50;;
24147;SDS011;12309;51.450;-2.624;2023-05-07T13:51:21;6.95;;;1.75;;
24147;SDS011;12309;51.450;-2.624;2023-05-07T13:53:47;10.20;;;2.58;;
24147;SDS011;12309;51.450;-2.624;2023-05-07T13:56:13;6.80;;;1.85;;
24147;SDS011;12309;51.450;-2.624;2023-05-07T13:58:39;6.45;;;1.80;;
24147;SDS011;12309;51.450;-2.624;2023-05-07T14:01:05;7.03;;;2.28;;
24147;SDS011;12309;51.450;-2.624;2023-05-07T14:03:31;6.32;;;2.17;;
24147;SDS011;12309;51.450;-2.624;2023-05-07T14:05:58;7.03;;;1.88;;
24147;SDS011;12309;51.450;-2.624;2023-05-07T14:08:25;4.72;;;1.45;;
24147;SDS011;12309;51.450;-2.624;2023-05-07T14:10:51;7.32;;;1.88;;
24147;SDS011;12309;51.450;-2.624;2023-05-07T14:13:16;6.15;;;1.70;;
24147;SDS011;12309;51.450;-2.624;2023-05-07T14:15:42;6.53;;;1.45;;
24147;SDS011;12309;51.450;-2.624;2023-05-07T14:18:11;4.22;;;1.60;;
24147;SDS011;12309;51.450;-2.624;2023-05-07T14:20:37;8.70;;;1.80;;
24147;SDS011;12309;51.450;-2.624;2023-05-07T14:23:03;8.50;;;1.80;;
24147;SDS011;12309;51.450;-2.624;2023-05-07T14:25:29;5.15;;;1.88;;
24147;SDS011;12309;51.450;-2.624;2023-05-07T14:27:55;9.07;;;2.00;;
24147;SDS011;12309;51.450;-2.624;2023-05-07T14:30:20;5.07;;;1.52;;
24147;SDS011;12309;51.450;-2.624;2023-05-07T14:32:49;7.93;;;1.90;;
24147;SDS011;12309;51.450;-2.624;2023-05-07T14:35:15;8.50;;;1.95;;